createdAt,value
2023-04-21T00:01:29.915Z,100.00
2023-04-21T00:04:33.676Z,100.00
2023-04-21T00:07:39.460Z,100.00
2023-04-21T00:10:43.210Z,100.00
2023-04-21T00:13:48.164Z,100.00
2023-04-21T00:16:52.819Z,100.00
2023-04-21T00:19:56.606Z,100.00
2023-04-21T00:23:01.023Z,100.00
2023-04-21T00:26:04.493Z,100.00
2023-04-21T00:29:09.405Z,100.00
2023-04-21T00:32:12.971Z,100.00
2023-04-21T00:35:16.463Z,100.00
2023-04-21T00:38:19.906Z,100.00
2023-04-21T00:41:23.727Z,100.00
2023-04-21T00:44:28.603Z,100.00
2023-04-21T00:47:32.427Z,100.00
2023-04-21T00:50:36.845Z,100.00
2023-04-21T00:53:41.115Z,100.00
2023-04-21T00:56:45.135Z,100.00
2023-04-21T00:59:52.017Z,100.00
2023-04-21T01:02:56.314Z,100.00
2023-04-21T01:06:00.580Z,100.00
2023-04-21T01:09:05.325Z,100.00
2023-04-21T01:12:11.197Z,100.00
2023-04-21T01:15:18.811Z,100.00
2023-04-21T01:18:22.368Z,100.00
2023-04-21T01:21:27.078Z,100.00
2023-04-21T01:24:41.055Z,100.00
2023-04-21T01:27:44.680Z,100.00
2023-04-21T01:30:48.720Z,100.00
2023-04-21T01:33:52.263Z,100.00
2023-04-21T01:36:55.902Z,100.00
2023-04-21T01:40:05.037Z,100.00
2023-04-21T01:43:09.208Z,100.00
2023-04-21T01:46:12.798Z,100.00
2023-04-21T01:49:16.392Z,100.00
2023-04-21T01:52:20.532Z,100.00
2023-04-21T01:55:26.115Z,100.00
2023-04-21T01:58:29.607Z,100.00
2023-04-21T02:01:33.165Z,100.00
2023-04-21T02:04:36.787Z,100.00
2023-04-21T02:07:40.333Z,100.00
2023-04-21T02:10:45.412Z,100.00
2023-04-21T02:13:48.923Z,100.00
2023-04-21T02:16:52.597Z,100.00
2023-04-21T02:19:56.559Z,100.00
2023-04-21T02:23:00.014Z,100.00
2023-04-21T02:26:05.011Z,100.00
2023-04-21T02:29:08.750Z,100.00
2023-04-21T02:32:22.119Z,100.00
2023-04-21T02:35:29.253Z,100.00
2023-04-21T02:38:32.813Z,100.00
2023-04-21T02:41:37.677Z,100.00
2023-04-21T02:44:42.844Z,100.00
2023-04-21T02:47:47.226Z,100.00
2023-04-21T02:50:50.844Z,100.00
2023-04-21T02:53:54.315Z,100.00
2023-04-21T02:56:59.203Z,100.00
2023-04-21T03:00:02.705Z,100.00
2023-04-21T03:03:06.714Z,100.00
2023-04-21T03:06:10.373Z,100.00
2023-04-21T03:09:13.938Z,100.00
2023-04-21T03:12:18.784Z,100.00
2023-04-21T03:15:22.717Z,100.00
2023-04-21T03:18:26.373Z,100.00
2023-04-21T03:21:29.918Z,100.00
2023-04-21T03:24:33.532Z,100.00
2023-04-21T03:27:38.454Z,100.00
2023-04-21T03:30:42.024Z,100.00
2023-04-21T03:33:45.776Z,100.00
2023-04-21T03:36:49.309Z,100.00
2023-04-21T03:39:52.810Z,100.00
2023-04-21T03:42:57.791Z,100.00
2023-04-21T03:46:01.409Z,100.00
2023-04-21T03:49:04.973Z,100.00
2023-04-21T03:52:08.482Z,100.00
2023-04-21T03:55:12.131Z,100.00
2023-04-21T03:58:17.272Z,100.00
2023-04-21T04:01:20.898Z,100.00
2023-04-21T04:04:24.646Z,100.00
2023-04-21T04:07:28.302Z,100.00
2023-04-21T04:10:31.921Z,100.00
2023-04-21T04:13:36.902Z,100.00
2023-04-21T04:16:41.524Z,100.00
2023-04-21T04:19:44.971Z,100.00
2023-04-21T04:22:48.582Z,100.00
2023-04-21T04:25:52.372Z,100.00
2023-04-21T04:28:57.338Z,100.00
2023-04-21T04:32:01.877Z,100.00
2023-04-21T04:35:06.237Z,100.00
2023-04-21T04:38:09.716Z,100.00
2023-04-21T04:41:13.392Z,100.00
2023-04-21T04:44:19.008Z,100.00
2023-04-21T04:47:22.983Z,100.00
2023-04-21T04:50:26.549Z,100.00
2023-04-21T04:53:30.193Z,100.00
2023-04-21T04:56:33.860Z,100.00
2023-04-21T04:59:39.130Z,100.00
2023-04-21T05:02:43.245Z,100.00
2023-04-21T05:05:47.230Z,100.00
2023-04-21T05:08:50.731Z,100.00
2023-04-21T05:11:54.316Z,100.00
2023-04-21T05:14:59.513Z,100.00
2023-04-21T05:18:04.103Z,100.00
2023-04-21T05:21:07.832Z,100.00
2023-04-21T05:24:11.494Z,100.00
2023-04-21T05:27:15.044Z,100.00
2023-04-21T05:30:20.091Z,100.00
2023-04-21T05:33:23.627Z,100.00
2023-04-21T05:36:27.989Z,100.00
2023-04-21T05:39:31.810Z,100.00
2023-04-21T05:42:35.354Z,100.00
2023-04-21T05:45:42.284Z,100.00
2023-04-21T05:48:45.919Z,100.00
2023-04-21T05:51:49.463Z,100.00
2023-04-21T05:54:52.983Z,100.00
2023-04-21T05:57:57.024Z,100.00
2023-04-21T06:01:02.209Z,100.00
2023-04-21T06:04:06.369Z,100.00
2023-04-21T06:07:13.609Z,100.00
2023-04-21T06:10:19.400Z,100.00
2023-04-21T06:13:22.984Z,100.00
2023-04-21T06:16:28.027Z,100.00
2023-04-21T06:19:31.665Z,100.00
2023-04-21T06:22:35.142Z,100.00
2023-04-21T06:25:39.090Z,100.00
2023-04-21T06:28:42.974Z,100.00
2023-04-21T06:31:48.051Z,100.00
2023-04-21T06:34:51.658Z,100.00
2023-04-21T06:37:55.165Z,100.00
2023-04-21T06:40:58.919Z,100.00
2023-04-21T06:44:02.452Z,100.00
2023-04-21T06:47:07.470Z,100.00
2023-04-21T06:50:12.278Z,100.00
2023-04-21T06:53:15.812Z,100.00
2023-04-21T06:56:19.307Z,100.00
2023-04-21T06:59:23.346Z,100.00
2023-04-21T07:02:28.451Z,100.00
2023-04-21T07:05:32.378Z,100.00
2023-04-21T07:08:36.023Z,100.00
2023-04-21T07:11:39.660Z,100.00
2023-04-21T07:14:43.305Z,100.00
2023-04-21T07:17:48.559Z,100.00
2023-04-21T07:20:52.392Z,100.00
2023-04-21T07:23:55.983Z,100.00
2023-04-21T07:26:59.592Z,100.00
2023-04-21T07:30:03.348Z,100.00
2023-04-21T07:33:09.052Z,100.00
2023-04-21T07:36:12.785Z,100.00
2023-04-21T07:39:16.832Z,100.00
2023-04-21T07:42:21.185Z,100.00
2023-04-21T07:45:26.664Z,100.00
2023-04-21T07:48:31.918Z,100.00
2023-04-21T07:51:35.918Z,100.00
2023-04-21T07:54:39.558Z,100.00
2023-04-21T07:57:43.251Z,100.00
2023-04-21T08:00:46.864Z,100.00
2023-04-21T08:03:52.045Z,100.00
2023-04-21T08:06:55.829Z,100.00
2023-04-21T08:10:00.291Z,100.00
2023-04-21T08:13:06.355Z,100.00
2023-04-21T08:16:10.217Z,100.00
2023-04-21T08:19:15.308Z,100.00
2023-04-21T08:22:18.903Z,100.00
2023-04-21T08:25:22.882Z,100.00
2023-04-21T08:28:26.456Z,100.00
2023-04-21T08:31:30.406Z,100.00
2023-04-21T08:34:36.092Z,100.00
2023-04-21T08:37:40.430Z,100.00
2023-04-21T08:40:44.068Z,100.00
2023-04-21T08:43:47.709Z,100.00
2023-04-21T08:46:51.845Z,100.00
2023-04-21T08:49:58.181Z,100.00
2023-04-21T08:53:01.932Z,100.00
2023-04-21T08:59:13.172Z,100.00
2023-04-21T09:02:19.035Z,100.00
2023-04-21T09:05:27.185Z,100.00
2023-04-21T09:08:31.867Z,100.00
2023-04-21T09:11:35.807Z,100.00
2023-04-21T09:14:39.277Z,100.00
2023-04-21T09:17:47.029Z,100.00
2023-04-21T09:21:05.672Z,98.66
2023-04-21T09:24:10.072Z,98.20
2023-04-21T09:27:13.946Z,98.14
2023-04-21T09:30:21.317Z,100.00
2023-04-21T09:33:32.230Z,100.00
2023-04-21T09:36:39.350Z,92.49
2023-04-21T09:40:03.622Z,90.14
2023-04-21T09:43:09.203Z,88.69
2023-04-21T09:46:13.623Z,90.71
2023-04-21T09:49:19.334Z,95.33
2023-04-21T09:52:30.051Z,95.31
2023-04-21T09:55:36.232Z,94.26
2023-04-21T09:58:47.660Z,95.40
2023-04-21T10:01:53.840Z,89.66
2023-04-21T10:04:57.614Z,88.10
2023-04-21T10:08:03.120Z,84.66
2023-04-21T10:11:08.115Z,78.30
2023-04-21T10:14:11.721Z,80.16
2023-04-21T10:17:17.961Z,81.26
2023-04-21T10:20:22.976Z,81.48
2023-04-21T10:23:34.136Z,86.26
2023-04-21T10:26:37.613Z,85.08
2023-04-21T10:29:55.490Z,83.92
2023-04-21T10:33:06.329Z,79.13
2023-04-21T10:36:15.729Z,76.84
2023-04-21T10:39:35.898Z,83.28
2023-04-21T10:42:39.427Z,73.06
2023-04-21T10:45:43.002Z,81.26
2023-04-21T10:48:54.242Z,77.52
2023-04-21T10:52:09.948Z,74.48
2023-04-21T10:55:17.157Z,67.62
2023-04-21T10:58:24.393Z,62.50
2023-04-21T11:01:28.181Z,62.56
2023-04-21T11:04:33.358Z,60.66
2023-04-21T11:07:38.553Z,61.29
2023-04-21T11:10:52.051Z,56.42
2023-04-21T11:13:55.564Z,57.02
2023-04-21T11:16:59.286Z,55.42
2023-04-21T11:20:06.958Z,54.96
2023-04-21T11:23:10.737Z,54.65
2023-04-21T11:26:15.645Z,56.46
2023-04-21T11:29:19.383Z,53.49
2023-04-21T11:32:23.102Z,51.42
2023-04-21T11:35:26.694Z,48.54
2023-04-21T11:38:38.551Z,49.56
2023-04-21T11:41:45.360Z,47.40
2023-04-21T11:44:48.848Z,48.35
2023-04-21T11:47:52.476Z,48.78
2023-04-21T11:50:55.964Z,46.17
2023-04-21T11:54:01.019Z,47.34
2023-04-21T11:57:07.004Z,45.74
2023-04-21T12:00:14.117Z,46.65
2023-04-21T12:03:17.672Z,45.75
2023-04-21T12:06:27.156Z,44.76
2023-04-21T12:09:31.744Z,45.15
2023-04-21T12:12:39.751Z,44.58
2023-04-21T12:15:46.224Z,44.15
2023-04-21T12:18:50.420Z,43.23
2023-04-21T12:21:57.666Z,42.90
2023-04-21T12:25:01.207Z,41.96
2023-04-21T12:28:10.127Z,43.36
2023-04-21T12:31:14.000Z,41.53
2023-04-21T12:34:18.183Z,44.15
2023-04-21T12:37:21.681Z,42.74
2023-04-21T12:40:25.208Z,41.37
2023-04-21T12:43:30.756Z,41.69
2023-04-21T12:46:34.319Z,41.30
2023-04-21T12:49:38.083Z,41.22
2023-04-21T12:52:41.739Z,41.32
2023-04-21T12:55:56.852Z,41.41
2023-04-21T12:59:06.169Z,40.97
2023-04-21T13:02:09.707Z,40.99
2023-04-21T13:05:13.503Z,41.22
2023-04-21T13:08:17.556Z,40.05
2023-04-21T13:11:21.091Z,41.82
2023-04-21T13:14:26.360Z,42.00
2023-04-21T13:17:30.083Z,42.10
2023-04-21T13:20:33.756Z,41.57
2023-04-21T13:23:37.250Z,41.27
2023-04-21T13:26:41.182Z,42.19
2023-04-21T13:29:47.687Z,40.51
2023-04-21T13:32:51.514Z,40.77
2023-04-21T13:35:55.036Z,38.42
2023-04-21T13:39:00.869Z,40.15
2023-04-21T13:42:04.545Z,40.47
2023-04-21T13:45:11.411Z,40.25
2023-04-21T13:48:14.960Z,40.00
2023-04-21T13:51:19.495Z,40.58
2023-04-21T13:54:22.980Z,39.92
2023-04-21T13:57:26.638Z,39.37
2023-04-21T14:00:31.461Z,41.17
2023-04-21T14:03:35.152Z,40.93
2023-04-21T14:06:38.762Z,38.13
2023-04-21T14:09:42.313Z,37.38
2023-04-21T14:12:46.115Z,38.16
2023-04-21T14:15:51.563Z,38.85
2023-04-21T14:18:55.197Z,39.48
2023-04-21T14:21:59.538Z,39.85
2023-04-21T14:25:03.994Z,41.12
2023-04-21T14:28:08.855Z,38.74
2023-04-21T14:31:13.866Z,41.45
2023-04-21T14:34:17.571Z,40.61
2023-04-21T14:37:21.413Z,42.11
2023-04-21T14:40:25.168Z,40.09
2023-04-21T14:43:28.756Z,42.24
2023-04-21T14:46:33.862Z,44.51
2023-04-21T14:49:38.187Z,44.21
2023-04-21T14:52:41.781Z,41.42
2023-04-21T14:55:45.313Z,41.58
2023-04-21T14:58:48.902Z,41.43
2023-04-21T15:01:54.185Z,41.83
2023-04-21T15:04:58.091Z,42.08
2023-04-21T15:08:01.662Z,43.22
2023-04-21T15:11:06.382Z,45.51
2023-04-21T15:14:09.960Z,44.59
2023-04-21T15:17:14.868Z,42.76
2023-04-21T15:20:20.804Z,42.08
2023-04-21T15:23:29.157Z,43.01
2023-04-21T15:26:33.018Z,44.13
2023-04-21T15:29:37.301Z,44.58
2023-04-21T15:32:42.469Z,45.16
2023-04-21T15:35:48.397Z,44.05
2023-04-21T15:38:51.871Z,43.18
2023-04-21T15:41:56.013Z,44.17
2023-04-21T15:44:59.550Z,44.02
2023-04-21T15:48:04.816Z,43.41
2023-04-21T15:51:08.545Z,43.76
2023-04-21T15:54:12.095Z,44.69
2023-04-21T15:57:16.224Z,45.20
2023-04-21T16:00:20.340Z,44.99
2023-04-21T16:03:26.290Z,45.92
2023-04-21T16:06:30.881Z,46.93
2023-04-21T16:09:34.596Z,45.54
2023-04-21T16:12:38.286Z,45.98
2023-04-21T16:15:42.271Z,46.28
2023-04-21T16:18:47.496Z,45.73
2023-04-21T16:21:51.028Z,46.94
2023-04-21T16:24:54.826Z,46.51
2023-04-21T16:27:58.485Z,46.80
2023-04-21T16:31:02.334Z,46.34
2023-04-21T16:34:07.442Z,46.20
2023-04-21T16:37:11.186Z,45.88
2023-04-21T16:40:14.969Z,44.67
2023-04-21T16:43:18.643Z,44.49
2023-04-21T16:46:22.474Z,44.58
2023-04-21T16:49:30.229Z,44.89
2023-04-21T16:52:34.194Z,45.14
2023-04-21T16:55:37.914Z,45.01
2023-04-21T16:58:41.542Z,45.78
2023-04-21T17:01:45.992Z,45.38
2023-04-21T17:04:53.871Z,45.05
2023-04-21T17:07:57.657Z,45.72
2023-04-21T17:11:01.424Z,45.98
2023-04-21T17:14:05.036Z,46.22
2023-04-21T17:17:08.926Z,46.36
2023-04-21T17:20:15.436Z,47.04
2023-04-21T17:23:19.108Z,47.17
2023-04-21T17:26:23.435Z,47.37
2023-04-21T17:29:28.221Z,47.01
2023-04-21T17:32:33.648Z,47.47
2023-04-21T17:35:43.698Z,47.96
2023-04-21T17:38:52.569Z,48.56
2023-04-21T17:41:56.205Z,48.97
2023-04-21T17:44:59.652Z,48.82
2023-04-21T17:48:03.474Z,49.25
2023-04-21T17:51:09.359Z,49.32
2023-04-21T17:54:12.978Z,49.67
2023-04-21T17:57:16.636Z,49.51
2023-04-21T18:00:22.078Z,50.10
2023-04-21T18:03:25.785Z,50.51
2023-04-21T18:06:31.936Z,51.49
2023-04-21T18:09:35.550Z,51.70
2023-04-21T18:12:39.126Z,51.88
2023-04-21T18:15:42.733Z,52.83
2023-04-21T18:18:47.608Z,52.79
2023-04-21T18:21:52.924Z,53.34
2023-04-21T18:24:56.940Z,54.21
2023-04-21T18:28:00.508Z,54.94
2023-04-21T18:31:04.684Z,55.42
2023-04-21T18:34:09.069Z,56.73
2023-04-21T18:37:14.618Z,56.62
2023-04-21T18:40:18.654Z,57.84
2023-04-21T18:43:22.633Z,57.99
2023-04-21T18:46:26.398Z,58.85
2023-04-21T18:49:30.014Z,59.51
2023-04-21T18:52:35.046Z,60.90
2023-04-21T18:55:39.142Z,62.32
2023-04-21T18:58:42.652Z,62.42
2023-04-21T19:01:46.529Z,62.87
2023-04-21T19:04:50.420Z,63.56
2023-04-21T19:07:55.677Z,63.28
2023-04-21T19:10:59.547Z,63.87
2023-04-21T19:14:03.127Z,64.75
2023-04-21T19:17:06.853Z,65.12
2023-04-21T19:20:12.421Z,65.71
2023-04-21T19:23:17.274Z,67.04
2023-04-21T19:26:21.911Z,66.84
2023-04-21T19:29:25.460Z,68.25
2023-04-21T19:32:29.359Z,68.97
2023-04-21T19:35:33.782Z,69.76
2023-04-21T19:38:38.990Z,71.58
2023-04-21T19:41:43.055Z,71.82
2023-04-21T19:44:46.621Z,73.63
2023-04-21T19:47:50.197Z,74.31
2023-04-21T19:50:53.875Z,73.24
2023-04-21T19:54:09.953Z,73.42
2023-04-21T19:57:15.252Z,73.28
2023-04-21T20:00:19.055Z,73.44
2023-04-21T20:03:22.787Z,71.29
2023-04-21T20:06:27.058Z,71.91
2023-04-21T20:09:32.204Z,72.77
2023-04-21T20:12:36.249Z,73.09
2023-04-21T20:15:40.265Z,72.51
2023-04-21T20:18:43.934Z,73.37
2023-04-21T20:21:47.618Z,74.37
2023-04-21T20:24:54.079Z,75.67
2023-04-21T20:27:58.297Z,75.11
2023-04-21T20:31:01.884Z,75.90
2023-04-21T20:34:05.602Z,77.89
2023-04-21T20:37:10.799Z,76.92
2023-04-21T20:40:15.900Z,79.46
2023-04-21T20:43:20.008Z,80.56
2023-04-21T20:46:23.806Z,82.30
2023-04-21T20:49:28.197Z,83.86
2023-04-21T20:52:31.889Z,85.75
2023-04-21T20:55:37.042Z,87.28
2023-04-21T20:58:41.471Z,87.53
2023-04-21T21:01:45.149Z,89.99
2023-04-21T21:04:48.738Z,90.52
2023-04-21T21:07:52.383Z,91.38
2023-04-21T21:10:57.353Z,91.65
2023-04-21T21:14:00.784Z,90.88
2023-04-21T21:17:04.663Z,92.71
2023-04-21T21:20:10.233Z,94.54
2023-04-21T21:23:13.904Z,94.53
2023-04-21T21:26:18.910Z,96.58
2023-04-21T21:29:22.448Z,97.60
2023-04-21T21:32:25.955Z,99.59
2023-04-21T21:35:29.665Z,100.00
2023-04-21T21:38:33.628Z,100.00
2023-04-21T21:41:38.549Z,100.00
2023-04-21T21:44:42.000Z,100.00
2023-04-21T21:47:45.970Z,100.00
2023-04-21T21:50:49.554Z,100.00
2023-04-21T21:53:53.035Z,100.00
2023-04-21T21:56:58.395Z,100.00
2023-04-21T22:00:02.290Z,100.00
2023-04-21T22:03:06.396Z,100.00
2023-04-21T22:06:10.139Z,100.00
2023-04-21T22:09:13.591Z,100.00
2023-04-21T22:12:18.511Z,100.00
2023-04-21T22:15:22.137Z,100.00
2023-04-21T22:18:25.685Z,100.00
2023-04-21T22:21:29.296Z,100.00
2023-04-21T22:24:32.792Z,100.00
2023-04-21T22:27:37.728Z,100.00
2023-04-21T22:30:41.369Z,100.00
2023-04-21T22:33:44.900Z,100.00
2023-04-21T22:36:48.530Z,100.00
2023-04-21T22:39:52.069Z,100.00
2023-04-21T22:42:57.077Z,100.00
2023-04-21T22:46:02.121Z,100.00
2023-04-21T22:49:05.808Z,100.00
2023-04-21T22:52:09.352Z,100.00
2023-04-21T22:55:12.911Z,100.00
2023-04-21T22:58:17.844Z,100.00
2023-04-21T23:01:21.498Z,100.00
2023-04-21T23:04:25.179Z,100.00
2023-04-21T23:07:28.766Z,100.00
2023-04-21T23:10:32.372Z,100.00
2023-04-21T23:13:37.351Z,100.00
2023-04-21T23:16:40.798Z,100.00
2023-04-21T23:19:44.431Z,100.00
2023-04-21T23:22:47.894Z,100.00
2023-04-21T23:25:51.435Z,100.00
2023-04-21T23:28:56.232Z,100.00
2023-04-21T23:31:59.869Z,100.00
2023-04-21T23:35:03.449Z,100.00
2023-04-21T23:38:07.023Z,100.00
2023-04-21T23:41:10.581Z,100.00
2023-04-21T23:44:15.469Z,100.00
2023-04-21T23:47:18.938Z,100.00
2023-04-21T23:50:22.540Z,100.00
2023-04-21T23:53:26.193Z,100.00
2023-04-21T23:56:30.110Z,100.00
2023-04-21T23:59:35.106Z,100.00
